Time;durP1;ratioP1;P1;durP2;ratioP2;P2;SDS_P1;SDS_P2;PMS_P1;PMS_P2;Temp;Humidity;BMP_temperature;BMP_pressure;BME280_temperature;BME280_humidity;BME280_pressure;Samples;Min_cycle;Max_cycle;Signal;HPM_P1;HPM_P2
2023/01/04 00:02:02;;;;;;;;;16.67;14.00;;;;;;;;114920;1197;25139;-58
2023/01/04 00:04:31;;;;;;;;;13.00;13.00;;;;;;;;114998;1203;25011;-58
2023/01/04 00:06:59;;;;;;;;;12.67;12.00;;;;;;;;114955;1203;25351;-58
2023/01/04 00:09:28;;;;;;;;;17.00;16.00;;;;;;;;114943;1204;25428;-58
2023/01/04 00:11:56;;;;;;;;;13.00;11.25;;;;;;;;114884;1198;24825;-59
2023/01/04 00:14:25;;;;;;;;;20.50;17.50;;;;;;;;114913;1203;26094;-58
2023/01/04 00:16:53;;;;;;;;;11.67;11.67;;;;;;;;114945;1206;24769;-58
2023/01/04 00:19:22;;;;;;;;;14.00;14.00;;;;;;;;114916;1204;25442;-58
2023/01/04 00:21:52;;;;;;;;;13.00;12.00;;;;;;;;114937;1203;24789;-58
2023/01/04 00:24:20;;;;;;;;;18.00;16.50;;;;;;;;114953;1200;24824;-58
2023/01/04 00:26:48;;;;;;;;;19.00;16.50;;;;;;;;114888;1203;25762;-58
2023/01/04 00:29:17;;;;;;;;;16.50;15.00;;;;;;;;114927;1203;25507;-58
2023/01/04 00:31:45;;;;;;;;;17.00;16.00;;;;;;;;114958;1203;25158;-58
2023/01/04 00:34:16;;;;;;;;;17.00;14.00;;;;;;;;114960;1200;25141;-58
2023/01/04 00:36:45;;;;;;;;;16.00;13.00;;;;;;;;114887;1203;25513;-59
2023/01/04 00:39:15;;;;;;;;;14.00;12.50;;;;;;;;114945;1203;25452;-58
2023/01/04 00:41:51;;;;;;;;;15.00;13.50;;;;;;;;114943;1199;26365;-58
2023/01/04 00:44:29;;;;;;;;;15.00;12.00;;;;;;;;114860;1200;24950;-58
2023/01/04 00:46:59;;;;;;;;;14.67;11.00;;;;;;;;114861;1208;24740;-59
2023/01/04 00:49:28;;;;;;;;;12.33;12.33;;;;;;;;114848;1207;25333;-59
2023/01/04 00:51:57;;;;;;;;;14.00;12.00;;;;;;;;114879;1204;25783;-58
2023/01/04 00:54:26;;;;;;;;;15.00;14.00;;;;;;;;114943;1203;25147;-59
2023/01/04 00:56:54;;;;;;;;;17.00;13.00;;;;;;;;114860;1204;24928;-59
2023/01/04 00:59:23;;;;;;;;;12.00;12.00;;;;;;;;114897;1200;24822;-58
2023/01/04 01:01:51;;;;;;;;;15.50;13.00;;;;;;;;114961;1203;25938;-58
2023/01/04 01:04:22;;;;;;;;;16.50;14.50;;;;;;;;114910;1201;25216;-58
2023/01/04 01:06:51;;;;;;;;;16.00;11.00;;;;;;;;114875;1200;25117;-58
2023/01/04 01:09:23;;;;;;;;;12.00;12.00;;;;;;;;114901;1200;24966;-58
2023/01/04 01:11:52;;;;;;;;;17.00;13.33;;;;;;;;114933;1200;25533;-59
2023/01/04 01:14:24;;;;;;;;;17.67;14.67;;;;;;;;114929;1200;25515;-59
2023/01/04 01:16:53;;;;;;;;;15.00;14.00;;;;;;;;114770;1206;24651;-59
2023/01/04 01:19:27;;;;;;;;;17.00;15.00;;;;;;;;114820;1200;25191;-60
2023/01/04 01:21:57;;;;;;;;;17.00;16.67;;;;;;;;114794;1197;25138;-60
2023/01/04 01:24:26;;;;;;;;;18.50;15.50;;;;;;;;114746;1196;25211;-59
2023/01/04 01:26:55;;;;;;;;;18.00;15.00;;;;;;;;114845;1200;25699;-59
2023/01/04 01:29:23;;;;;;;;;15.00;13.00;;;;;;;;114811;1207;24859;-59
2023/01/04 01:31:53;;;;;;;;;15.00;13.00;;;;;;;;114894;1197;25209;-57
2023/01/04 01:34:21;;;;;;;;;17.00;14.25;;;;;;;;114923;1203;25358;-58
2023/01/04 01:36:50;;;;;;;;;16.00;14.00;;;;;;;;114961;1200;25223;-58
2023/01/04 01:39:18;;;;;;;;;14.00;12.00;;;;;;;;114908;1200;25528;-58
2023/01/04 01:41:47;;;;;;;;;15.00;14.00;;;;;;;;114971;1203;24824;-57
2023/01/04 01:44:40;;;;;;;;;13.00;12.00;;;;;;;;114930;1204;25425;-58
2023/01/04 01:47:16;;;;;;;;;16.00;12.00;;;;;;;;114934;1203;25015;-58
2023/01/04 01:49:46;;;;;;;;;15.33;13.33;;;;;;;;114947;1203;25739;-58
2023/01/04 01:52:19;;;;;;;;;13.50;12.00;;;;;;;;114944;1200;25505;-58
2023/01/04 01:54:52;;;;;;;;;14.00;12.50;;;;;;;;114910;1200;25169;-58
2023/01/04 01:57:23;;;;;;;;;17.00;14.00;;;;;;;;114930;1203;25158;-58
2023/01/04 01:59:54;;;;;;;;;15.50;13.50;;;;;;;;114881;1197;24995;-59
2023/01/04 02:02:23;;;;;;;;;12.00;12.00;;;;;;;;114925;1208;24699;-59
2023/01/04 02:04:52;;;;;;;;;13.00;13.00;;;;;;;;114887;1200;26177;-59
2023/01/04 02:07:25;;;;;;;;;15.50;13.50;;;;;;;;114827;1202;25054;-59
2023/01/04 02:09:55;;;;;;;;;17.00;15.00;;;;;;;;114951;1203;24826;-59
2023/01/04 02:12:24;;;;;;;;;13.50;12.75;;;;;;;;114954;1208;24757;-60
2023/01/04 02:14:52;;;;;;;;;19.50;17.00;;;;;;;;114896;1204;25636;-60
2023/01/04 02:17:44;;;;;;;;;15.00;13.00;;;;;;;;114827;1208;25285;-61
2023/01/04 02:20:33;;;;;;;;;17.00;16.00;;;;;;;;114897;1199;25406;-59
2023/01/04 02:23:23;;;;;;;;;11.00;10.00;;;;;;;;114915;1200;24993;-58
2023/01/04 02:26:04;;;;;;;;;15.50;14.50;;;;;;;;114950;1207;25074;-58
2023/01/04 02:28:47;;;;;;;;;17.50;16.00;;;;;;;;114937;1206;25221;-59
2023/01/04 02:31:47;;;;;;;;;16.00;14.50;;;;;;;;114887;1203;25214;-59
2023/01/04 02:34:26;;;;;;;;;16.50;13.75;;;;;;;;114880;1202;25206;-58
2023/01/04 02:37:05;;;;;;;;;14.00;14.00;;;;;;;;114833;1203;25563;-58
2023/01/04 02:39:56;;;;;;;;;14.50;12.50;;;;;;;;114927;1200;24842;-58
2023/01/04 02:45:39;;;;;;;;;15.00;11.00;;;;;;;;114846;1194;25506;-59
2023/01/04 02:50:57;;;;;;;;;16.00;11.50;;;;;;;;114952;1199;25540;-59
2023/01/04 02:53:29;;;;;;;;;16.00;15.50;;;;;;;;114903;1207;25410;-59
2023/01/04 02:56:04;;;;;;;;;18.00;15.00;;;;;;;;114896;1199;25519;-59
2023/01/04 02:59:23;;;;;;;;;18.67;16.67;;;;;;;;114872;1200;25111;-61
2023/01/04 03:08:24;;;;;;;;;14.00;13.33;;;;;;;;114926;1200;25401;-59
2023/01/04 03:10:59;;;;;;;;;12.00;11.00;;;;;;;;114908;1203;24817;-57
2023/01/04 03:13:36;;;;;;;;;12.00;10.00;;;;;;;;114940;1200;25094;-56
2023/01/04 03:16:19;;;;;;;;;17.00;16.00;;;;;;;;114849;1203;25463;-59
2023/01/04 03:18:51;;;;;;;;;19.00;16.00;;;;;;;;114936;1206;25627;-59
2023/01/04 03:21:23;;;;;;;;;18.00;15.00;;;;;;;;114928;1199;25561;-58
2023/01/04 03:36:09;;;;;;;;;16.00;15.00;;;;;;;;114612;1200;25149;-59
2023/01/04 03:50:59;;;;;;;;;10.00;9.00;;;;;;;;114643;1211;25391;-59
2023/01/04 03:53:28;;;;;;;;;14.00;11.00;;;;;;;;114691;1195;25000;-59
2023/01/04 03:55:57;;;;;;;;;15.00;12.00;;;;;;;;114605;1210;24982;-59
2023/01/04 03:58:26;;;;;;;;;15.00;12.00;;;;;;;;114698;1210;25664;-58
2023/01/04 04:01:02;;;;;;;;;16.00;12.00;;;;;;;;114592;1208;25668;-57
2023/01/04 04:09:04;;;;;;;;;15.50;14.00;;;;;;;;114642;1209;24998;-58
2023/01/04 04:11:33;;;;;;;;;15.00;14.00;;;;;;;;114667;1205;24908;-59
2023/01/04 04:14:01;;;;;;;;;14.33;14.33;;;;;;;;114638;1203;25345;-59
2023/01/04 04:16:30;;;;;;;;;19.00;17.00;;;;;;;;114703;1203;25507;-58
2023/01/04 04:18:58;;;;;;;;;10.00;10.00;;;;;;;;114650;1199;24821;-58
2023/01/04 04:21:35;;;;;;;;;17.00;15.00;;;;;;;;114649;1200;24741;-58
2023/01/04 04:24:05;;;;;;;;;15.50;14.00;;;;;;;;114658;1199;25268;-58
2023/01/04 04:26:33;;;;;;;;;18.00;15.00;;;;;;;;114710;1202;25465;-58
2023/01/04 04:29:02;;;;;;;;;15.00;15.00;;;;;;;;114631;1212;24771;-58
2023/01/04 04:31:30;;;;;;;;;16.50;15.50;;;;;;;;114664;1211;25383;-58
2023/01/04 04:33:59;;;;;;;;;15.50;14.00;;;;;;;;114678;1206;25286;-58
2023/01/04 04:36:27;;;;;;;;;18.00;15.00;;;;;;;;114677;1209;25487;-58
2023/01/04 04:38:56;;;;;;;;;19.00;19.00;;;;;;;;114672;1209;25530;-58
2023/01/04 04:41:42;;;;;;;;;16.00;14.00;;;;;;;;114677;1201;25460;-58
2023/01/04 04:44:17;;;;;;;;;21.00;14.00;;;;;;;;114669;1208;25020;-58
2023/01/04 04:46:47;;;;;;;;;17.00;12.00;;;;;;;;114588;1209;25352;-58
2023/01/04 04:49:16;;;;;;;;;13.00;9.00;;;;;;;;114621;1211;25029;-58
2023/01/04 04:51:45;;;;;;;;;15.50;15.00;;;;;;;;114724;1208;24743;-58
2023/01/04 04:54:16;;;;;;;;;14.00;13.00;;;;;;;;114665;1206;24863;-58
2023/01/04 04:56:45;;;;;;;;;18.00;16.00;;;;;;;;114720;1209;25246;-58
2023/01/04 04:59:13;;;;;;;;;19.00;17.00;;;;;;;;114651;1208;25050;-58
2023/01/04 05:01:42;;;;;;;;;16.00;14.50;;;;;;;;114616;1203;26062;-59
2023/01/04 05:04:15;;;;;;;;;19.00;17.00;;;;;;;;114702;1205;25372;-58
2023/01/04 05:06:46;;;;;;;;;11.50;11.50;;;;;;;;114599;1208;25088;-59
2023/01/04 05:09:15;;;;;;;;;16.50;13.50;;;;;;;;114703;1211;25400;-59
2023/01/04 05:14:30;;;;;;;;;19.00;14.00;;;;;;;;114635;1211;25075;-59
2023/01/04 05:16:58;;;;;;;;;15.50;13.50;;;;;;;;114656;1209;24844;-59
2023/01/04 05:19:27;;;;;;;;;19.00;16.00;;;;;;;;114644;1209;25319;-58
2023/01/04 05:21:56;;;;;;;;;8.50;8.50;;;;;;;;114668;1211;24751;-59
2023/01/04 05:24:24;;;;;;;;;16.50;16.50;;;;;;;;114587;1198;25761;-59
2023/01/04 05:26:53;;;;;;;;;15.00;12.00;;;;;;;;114679;1207;24900;-59
2023/01/04 05:32:08;;;;;;;;;13.00;11.00;;;;;;;;114696;1200;24991;-58
2023/01/04 05:34:37;;;;;;;;;15.00;14.00;;;;;;;;114667;1199;25013;-58
2023/01/04 05:37:05;;;;;;;;;13.00;11.00;;;;;;;;114627;1200;25613;-59
2023/01/04 05:39:34;;;;;;;;;13.00;13.00;;;;;;;;114663;1203;25638;-59
2023/01/04 05:44:51;;;;;;;;;14.00;13.00;;;;;;;;114530;1208;25647;-64
2023/01/04 05:47:19;;;;;;;;;14.50;11.00;;;;;;;;114537;1206;24877;-62
2023/01/04 05:49:48;;;;;;;;;12.00;11.00;;;;;;;;114433;1206;25034;-63
2023/01/04 05:52:17;;;;;;;;;15.00;13.00;;;;;;;;114639;1203;25589;-63
2023/01/04 05:54:45;;;;;;;;;9.00;9.00;;;;;;;;114606;1204;25642;-63
2023/01/04 05:57:15;;;;;;;;;11.00;11.00;;;;;;;;114651;1200;25537;-63
2023/01/04 05:59:43;;;;;;;;;12.50;9.50;;;;;;;;114459;1211;26072;-64
2023/01/04 06:02:22;;;;;;;;;17.00;11.50;;;;;;;;114637;1207;25639;-63
2023/01/04 06:04:51;;;;;;;;;15.00;10.00;;;;;;;;114646;1203;25711;-62
2023/01/04 06:07:27;;;;;;;;;12.50;8.00;;;;;;;;114663;1209;25433;-63
2023/01/04 06:09:56;;;;;;;;;13.00;13.00;;;;;;;;114464;1204;25222;-64
2023/01/04 06:12:24;;;;;;;;;11.50;10.50;;;;;;;;114677;1203;25083;-64
2023/01/04 06:14:53;;;;;;;;;12.50;11.00;;;;;;;;114556;1208;25578;-64
2023/01/04 06:17:21;;;;;;;;;14.00;11.00;;;;;;;;114626;1201;25062;-63
2023/01/04 06:19:50;;;;;;;;;16.00;14.00;;;;;;;;114630;1206;26207;-65
2023/01/04 06:22:19;;;;;;;;;14.00;12.50;;;;;;;;114640;1204;25286;-63
2023/01/04 06:24:48;;;;;;;;;14.00;13.00;;;;;;;;114675;1203;25116;-64
2023/01/04 06:27:16;;;;;;;;;12.00;12.00;;;;;;;;114576;1211;24708;-64
2023/01/04 06:29:45;;;;;;;;;12.00;12.00;;;;;;;;114595;1204;25208;-65
2023/01/04 06:32:13;;;;;;;;;16.00;13.00;;;;;;;;114536;1209;25756;-64
2023/01/04 06:34:42;;;;;;;;;10.00;10.00;;;;;;;;114570;1211;25196;-64
2023/01/04 06:37:10;;;;;;;;;;;;;;;;;;114544;1207;25480;-62
2023/01/04 06:39:39;;;;;;;;;18.00;15.00;;;;;;;;114556;1205;24829;-63
2023/01/04 06:42:43;;;;;;;;;18.00;15.00;;;;;;;;114478;1203;25479;-63
2023/01/04 06:44:58;;;;;;;;;13.50;10.00;;;;;;;;114458;1210;25209;-65
2023/01/04 06:47:27;;;;;;;;;14.00;11.00;;;;;;;;114397;1206;24884;-64
2023/01/04 06:49:55;;;;;;;;;19.00;13.00;;;;;;;;114531;1204;25466;-64
2023/01/04 06:52:24;;;;;;;;;14.00;12.00;;;;;;;;114512;1203;25014;-61
2023/01/04 06:54:53;;;;;;;;;15.00;12.00;;;;;;;;114473;1204;25307;-61
2023/01/04 06:57:21;;;;;;;;;13.00;13.00;;;;;;;;114532;1210;25258;-62
2023/01/04 06:59:50;;;;;;;;;9.00;9.00;;;;;;;;114550;1203;24915;-61
2023/01/04 07:02:18;;;;;;;;;14.00;11.00;;;;;;;;114536;1203;25324;-61
2023/01/04 07:04:47;;;;;;;;;15.50;13.00;;;;;;;;114625;1203;25462;-61
2023/01/04 07:07:16;;;;;;;;;14.00;11.00;;;;;;;;114602;1210;25662;-61
2023/01/04 07:09:44;;;;;;;;;16.00;11.00;;;;;;;;114531;1203;25225;-60
2023/01/04 07:12:13;;;;;;;;;9.50;8.50;;;;;;;;114519;1207;25104;-62
2023/01/04 07:14:41;;;;;;;;;15.00;12.00;;;;;;;;114553;1203;25601;-62
2023/01/04 07:17:10;;;;;;;;;17.00;12.00;;;;;;;;114497;1206;25062;-60
2023/01/04 07:19:38;;;;;;;;;19.00;12.00;;;;;;;;114492;1207;25242;-63
2023/01/04 07:22:07;;;;;;;;;11.50;9.50;;;;;;;;114497;1204;25598;-63
2023/01/04 07:24:35;;;;;;;;;10.00;9.00;;;;;;;;114434;1206;25048;-63
2023/01/04 07:27:04;;;;;;;;;12.50;10.00;;;;;;;;114528;1206;25465;-68
2023/01/04 07:29:32;;;;;;;;;12.00;11.00;;;;;;;;114553;1207;25872;-62
2023/01/04 07:32:01;;;;;;;;;12.00;11.00;;;;;;;;114638;1204;25179;-65
2023/01/04 07:34:30;;;;;;;;;;;;;;;;;;114582;1209;25020;-63
2023/01/04 07:36:58;;;;;;;;;13.50;11.00;;;;;;;;114541;1205;25340;-63
2023/01/04 07:39:27;;;;;;;;;13.00;10.50;;;;;;;;114546;1203;25265;-63
2023/01/04 07:41:55;;;;;;;;;14.00;10.00;;;;;;;;114655;1209;24944;-62
2023/01/04 07:44:26;;;;;;;;;12.50;12.50;;;;;;;;114653;1206;24886;-61
2023/01/04 07:46:55;;;;;;;;;9.00;9.00;;;;;;;;114533;1209;24875;-60
2023/01/04 07:49:24;;;;;;;;;13.00;13.00;;;;;;;;114605;1200;25407;-61
2023/01/04 07:51:52;;;;;;;;;15.00;10.00;;;;;;;;114568;1211;25583;-62
2023/01/04 07:54:23;;;;;;;;;12.50;10.00;;;;;;;;114493;1199;25586;-61
2023/01/04 07:56:51;;;;;;;;;11.00;8.00;;;;;;;;114560;1203;24719;-62
2023/01/04 07:59:21;;;;;;;;;11.00;11.00;;;;;;;;114524;1208;24876;-62
2023/01/04 08:01:50;;;;;;;;;11.50;8.00;;;;;;;;114456;1206;25568;-63
2023/01/04 08:04:21;;;;;;;;;13.00;11.00;;;;;;;;114594;1206;25377;-61
2023/01/04 08:06:50;;;;;;;;;15.00;7.00;;;;;;;;114541;1210;25371;-61
2023/01/04 08:09:19;;;;;;;;;12.50;10.00;;;;;;;;114539;1209;25360;-62
2023/01/04 08:11:47;;;;;;;;;12.00;10.50;;;;;;;;114621;1210;25610;-61
2023/01/04 08:14:16;;;;;;;;;11.00;8.00;;;;;;;;114601;1208;24712;-61
2023/01/04 08:16:44;;;;;;;;;13.00;9.00;;;;;;;;114582;1209;25364;-61
2023/01/04 08:19:16;;;;;;;;;11.00;10.00;;;;;;;;114638;1209;24802;-61
2023/01/04 08:21:45;;;;;;;;;7.00;6.50;;;;;;;;114496;1201;24928;-63
2023/01/04 08:24:16;;;;;;;;;11.50;10.00;;;;;;;;114489;1206;25612;-73
2023/01/04 08:26:45;;;;;;;;;12.00;9.00;;;;;;;;114347;1199;25121;-68
2023/01/04 08:29:14;;;;;;;;;7.00;6.00;;;;;;;;114367;1207;24984;-68
2023/01/04 08:31:42;;;;;;;;;11.00;7.00;;;;;;;;114458;1203;25180;-74
2023/01/04 08:34:11;;;;;;;;;11.00;9.00;;;;;;;;114590;1201;24695;-69
2023/01/04 08:36:48;;;;;;;;;13.00;9.50;;;;;;;;114470;1198;24912;-67
2023/01/04 08:39:17;;;;;;;;;8.00;5.00;;;;;;;;115321;1205;25242;-65
2023/01/04 08:41:52;;;;;;;;;8.00;7.00;;;;;;;;114605;1206;25336;-67
2023/01/04 08:44:29;;;;;;;;;9.00;7.00;;;;;;;;114579;1211;25598;-67
2023/01/04 08:46:58;;;;;;;;;11.00;10.00;;;;;;;;114606;1211;25155;-67
2023/01/04 08:49:27;;;;;;;;;7.00;6.50;;;;;;;;114585;1211;25178;-68
2023/01/04 08:51:55;;;;;;;;;9.00;9.00;;;;;;;;114587;1203;25452;-67
2023/01/04 08:54:24;;;;;;;;;13.00;10.00;;;;;;;;114419;1206;25503;-67
2023/01/04 08:56:52;;;;;;;;;9.00;7.00;;;;;;;;114595;1203;25254;-68
2023/01/04 08:59:21;;;;;;;;;8.00;8.00;;;;;;;;114596;1203;26199;-68
2023/01/04 09:01:49;;;;;;;;;12.00;9.00;;;;;;;;114577;1211;25105;-68
2023/01/04 09:04:18;;;;;;;;;9.50;8.50;;;;;;;;114611;1211;25991;-66
2023/01/04 09:06:47;;;;;;;;;10.00;9.00;;;;;;;;114659;1203;25834;-66
2023/01/04 09:09:15;;;;;;;;;10.00;7.00;;;;;;;;114570;1211;25170;-65
2023/01/04 09:11:44;;;;;;;;;11.00;8.50;;;;;;;;114649;1209;25376;-65
2023/01/04 09:14:12;;;;;;;;;12.50;8.50;;;;;;;;114645;1208;26184;-66
2023/01/04 09:16:41;;;;;;;;;6.00;6.00;;;;;;;;114617;1208;25116;-65
2023/01/04 09:19:10;;;;;;;;;9.00;7.00;;;;;;;;114621;1200;25002;-65
2023/01/04 09:21:45;;;;;;;;;7.00;7.00;;;;;;;;114574;1203;24702;-66
2023/01/04 09:24:13;;;;;;;;;6.50;6.00;;;;;;;;114619;1208;25234;-66
2023/01/04 09:26:42;;;;;;;;;7.00;7.00;;;;;;;;114630;1203;25177;-65
2023/01/04 09:29:11;;;;;;;;;9.00;8.00;;;;;;;;114394;1210;24886;-67
2023/01/04 09:31:39;;;;;;;;;10.00;8.50;;;;;;;;114528;1209;24704;-66
2023/01/04 09:34:11;;;;;;;;;8.00;7.00;;;;;;;;114552;1203;25546;-66
2023/01/04 09:36:44;;;;;;;;;9.00;8.00;;;;;;;;114426;1208;25332;-66
2023/01/04 09:39:14;;;;;;;;;9.00;7.00;;;;;;;;114426;1206;25055;-66
2023/01/04 09:41:51;;;;;;;;;5.00;5.00;;;;;;;;114435;1209;25321;-66
2023/01/04 09:44:36;;;;;;;;;10.00;8.00;;;;;;;;114581;1203;25479;-67
2023/01/04 09:47:40;;;;;;;;;8.00;8.00;;;;;;;;114548;1199;24968;-66
2023/01/04 09:50:15;;;;;;;;;7.50;5.00;;;;;;;;114529;1203;25938;-66
2023/01/04 09:52:49;;;;;;;;;9.00;6.00;;;;;;;;114545;1211;25286;-66
2023/01/04 09:55:48;;;;;;;;;7.00;7.00;;;;;;;;114398;1206;25640;-67
2023/01/04 09:58:25;;;;;;;;;7.00;6.00;;;;;;;;114574;1208;25562;-66
2023/01/04 10:01:00;;;;;;;;;12.00;9.00;;;;;;;;114593;1206;25136;-68
2023/01/04 10:03:38;;;;;;;;;9.00;6.00;;;;;;;;114623;1196;25551;-65
2023/01/04 10:06:11;;;;;;;;;9.00;7.00;;;;;;;;114536;1203;25352;-64
2023/01/04 10:08:41;;;;;;;;;8.50;6.50;;;;;;;;114567;1209;25383;-65
2023/01/04 10:11:28;;;;;;;;;7.00;6.00;;;;;;;;114490;1205;25346;-65
2023/01/04 10:14:00;;;;;;;;;7.00;6.00;;;;;;;;114521;1211;25237;-65
2023/01/04 10:16:52;;;;;;;;;5.00;5.00;;;;;;;;114559;1211;24939;-65
2023/01/04 10:19:51;;;;;;;;;6.00;5.50;;;;;;;;114537;1211;24780;-65
2023/01/04 10:22:48;;;;;;;;;4.50;4.50;;;;;;;;114533;1208;25343;-66
2023/01/04 10:25:46;;;;;;;;;9.00;7.50;;;;;;;;114508;1203;25714;-67
2023/01/04 10:28:30;;;;;;;;;7.50;7.50;;;;;;;;114564;1203;25375;-66
2023/01/04 10:31:08;;;;;;;;;7.00;7.00;;;;;;;;114538;1210;25234;-65
2023/01/04 10:34:16;;;;;;;;;11.00;8.00;;;;;;;;114526;1205;25023;-66
2023/01/04 10:36:47;;;;;;;;;5.00;5.00;;;;;;;;114584;1211;25881;-66
2023/01/04 10:39:18;;;;;;;;;6.50;6.00;;;;;;;;114490;1196;24926;-66
2023/01/04 10:41:57;;;;;;;;;5.00;5.00;;;;;;;;114632;1207;25737;-67
2023/01/04 10:44:56;;;;;;;;;7.00;4.00;;;;;;;;114535;1208;24766;-65
2023/01/04 10:47:43;;;;;;;;;7.00;5.00;;;;;;;;114649;1210;25417;-65
2023/01/04 10:50:32;;;;;;;;;5.00;5.00;;;;;;;;114631;1210;25220;-67
2023/01/04 10:53:12;;;;;;;;;7.50;5.00;;;;;;;;114465;1208;25762;-68
2023/01/04 10:55:51;;;;;;;;;10.00;7.00;;;;;;;;114596;1211;25155;-67
2023/01/04 10:58:47;;;;;;;;;7.00;7.00;;;;;;;;114614;1209;24947;-66
2023/01/04 11:01:24;;;;;;;;;7.00;5.00;;;;;;;;114659;1208;24818;-66
2023/01/04 11:04:00;;;;;;;;;6.67;6.00;;;;;;;;114449;1206;25666;-66
2023/01/04 11:06:53;;;;;;;;;5.00;5.00;;;;;;;;114594;1201;24880;-66
2023/01/04 11:09:45;;;;;;;;;10.00;7.00;;;;;;;;114544;1203;24937;-72
2023/01/04 11:12:16;;;;;;;;;7.00;7.00;;;;;;;;114609;1206;25209;-66
2023/01/04 11:14:44;;;;;;;;;5.75;5.75;;;;;;;;114589;1208;24832;-60
2023/01/04 11:17:13;;;;;;;;;6.00;5.00;;;;;;;;114681;1207;25531;-62
2023/01/04 11:19:43;;;;;;;;;8.00;5.50;;;;;;;;114615;1209;24698;-63
2023/01/04 11:22:28;;;;;;;;;6.00;5.00;;;;;;;;114653;1203;24803;-64
2023/01/04 11:25:03;;;;;;;;;4.50;4.50;;;;;;;;114547;1202;25241;-64
2023/01/04 11:28:17;;;;;;;;;6.50;6.50;;;;;;;;114596;1203;24828;-63
2023/01/04 11:31:04;;;;;;;;;7.00;5.67;;;;;;;;114687;1203;25511;-62
2023/01/04 11:34:08;;;;;;;;;7.50;5.00;;;;;;;;114639;1203;24906;-67
2023/01/04 11:36:37;;;;;;;;;6.00;5.00;;;;;;;;114689;1209;24683;-63
2023/01/04 11:39:17;;;;;;;;;9.00;5.50;;;;;;;;114719;1202;25422;-67
2023/01/04 11:41:59;;;;;;;;;6.67;5.00;;;;;;;;114675;1200;24778;-66
2023/01/04 11:44:34;;;;;;;;;7.00;5.00;;;;;;;;114658;1203;24801;-66
2023/01/04 11:47:19;;;;;;;;;8.00;7.00;;;;;;;;114682;1208;24757;-65
2023/01/04 11:49:47;;;;;;;;;5.00;5.00;;;;;;;;114676;1207;25366;-65
2023/01/04 11:52:35;;;;;;;;;5.00;5.00;;;;;;;;114572;1206;25388;-64
2023/01/04 11:55:27;;;;;;;;;5.00;4.00;;;;;;;;114671;1203;25224;-63
2023/01/04 11:58:14;;;;;;;;;4.50;3.50;;;;;;;;114402;1209;24725;-64
2023/01/04 12:00:54;;;;;;;;;9.50;4.50;;;;;;;;114646;1196;25180;-64
2023/01/04 12:03:37;;;;;;;;;7.00;5.50;;;;;;;;114635;1200;24914;-67
2023/01/04 12:06:28;;;;;;;;;8.00;6.00;;;;;;;;114432;1210;24953;-65
2023/01/04 12:08:56;;;;;;;;;4.50;4.50;;;;;;;;114641;1208;24817;-63
2023/01/04 12:11:34;;;;;;;;;5.00;4.00;;;;;;;;114629;1210;25604;-64
2023/01/04 12:14:04;;;;;;;;;7.00;5.00;;;;;;;;114429;1211;24959;-66
2023/01/04 12:17:00;;;;;;;;;4.50;4.50;;;;;;;;114611;1209;25186;-65
2023/01/04 12:19:30;;;;;;;;;7.00;5.00;;;;;;;;114603;1204;24804;-65
2023/01/04 12:22:00;;;;;;;;;5.50;5.50;;;;;;;;114608;1206;25467;-64
2023/01/04 12:24:33;;;;;;;;;7.00;5.00;;;;;;;;114645;1203;24978;-64
2023/01/04 12:27:03;;;;;;;;;8.00;7.00;;;;;;;;114490;1203;25344;-65
2023/01/04 12:29:57;;;;;;;;;7.50;6.50;;;;;;;;114599;1207;24983;-66
2023/01/04 12:32:25;;;;;;;;;13.50;8.00;;;;;;;;114593;1206;25272;-67
2023/01/04 12:34:54;;;;;;;;;11.00;8.00;;;;;;;;114630;1204;26412;-65
2023/01/04 12:37:35;;;;;;;;;;;;;;;;;;114542;1206;25758;-65
2023/01/04 12:40:42;;;;;;;;;16.00;15.00;;;;;;;;114636;1209;24741;-65
2023/01/04 12:43:13;;;;;;;;;17.00;15.00;;;;;;;;114507;1206;25128;-64
2023/01/04 12:45:44;;;;;;;;;15.50;11.50;;;;;;;;114620;1209;25050;-64
2023/01/04 12:51:20;;;;;;;;;14.00;12.00;;;;;;;;114692;1206;25471;-63
2023/01/04 12:54:30;;;;;;;;;14.50;13.50;;;;;;;;114560;1206;24814;-64
2023/01/04 12:57:17;;;;;;;;;10.00;8.00;;;;;;;;114600;1203;25211;-64
2023/01/04 13:00:07;;;;;;;;;14.00;14.00;;;;;;;;114582;1209;25917;-64
2023/01/04 13:02:46;;;;;;;;;16.50;13.00;;;;;;;;114566;1203;25197;-62
2023/01/04 13:05:15;;;;;;;;;8.00;7.00;;;;;;;;114519;1204;25169;-61
2023/01/04 13:08:10;;;;;;;;;13.00;10.00;;;;;;;;114612;1209;25520;-62
2023/01/04 13:10:46;;;;;;;;;11.00;8.50;;;;;;;;114649;1203;25632;-63
2023/01/04 13:13:51;;;;;;;;;13.00;12.00;;;;;;;;114637;1211;25021;-65
2023/01/04 13:16:58;;;;;;;;;10.50;10.50;;;;;;;;114637;1211;26062;-66
2023/01/04 13:19:28;;;;;;;;;7.00;7.00;;;;;;;;114554;1211;25248;-66
2023/01/04 13:21:57;;;;;;;;;8.00;7.00;;;;;;;;114606;1203;24881;-65
2023/01/04 13:24:29;;;;;;;;;8.00;8.00;;;;;;;;114583;1203;24881;-65
2023/01/04 13:27:09;;;;;;;;;7.00;7.00;;;;;;;;114410;1212;25652;-64
2023/01/04 13:29:39;;;;;;;;;9.00;7.00;;;;;;;;114563;1200;24849;-63
2023/01/04 13:32:16;;;;;;;;;10.00;8.00;;;;;;;;114554;1202;25233;-64
2023/01/04 13:34:51;;;;;;;;;6.50;5.50;;;;;;;;114515;1208;24917;-65
2023/01/04 13:37:42;;;;;;;;;6.50;6.50;;;;;;;;114524;1202;25157;-67
2023/01/04 13:40:24;;;;;;;;;10.50;8.50;;;;;;;;114538;1204;25180;-66
2023/01/04 13:43:15;;;;;;;;;11.00;7.00;;;;;;;;114507;1212;25335;-65
2023/01/04 13:46:02;;;;;;;;;10.00;6.00;;;;;;;;114459;1206;25273;-64
2023/01/04 13:48:37;;;;;;;;;437.00;176.00;;;;;;;;114464;1209;25454;-71
2023/01/04 13:51:12;;;;;;;;;41.00;19.00;;;;;;;;114666;1203;24980;-79
2023/01/04 13:53:41;;;;;;;;;37.00;21.00;;;;;;;;114659;1211;25416;-65
2023/01/04 13:56:22;;;;;;;;;38.00;25.00;;;;;;;;114558;1204;25174;-64
2023/01/04 13:58:50;;;;;;;;;33.50;22.50;;;;;;;;114364;1205;25782;-61
2023/01/04 14:01:24;;;;;;;;;36.00;19.50;;;;;;;;114390;1203;25064;-61
2023/01/04 14:04:04;;;;;;;;;30.00;13.50;;;;;;;;114576;1206;25523;-63
2023/01/04 14:06:43;;;;;;;;;26.00;18.00;;;;;;;;114496;1211;25637;-70
2023/01/04 14:09:12;;;;;;;;;26.00;18.00;;;;;;;;114625;1208;25294;-68
2023/01/04 14:12:00;;;;;;;;;32.00;17.00;;;;;;;;114634;1203;25129;-65
2023/01/04 14:14:50;;;;;;;;;27.00;15.00;;;;;;;;114582;1203;25240;-65
2023/01/04 14:17:32;;;;;;;;;36.00;21.50;;;;;;;;114517;1203;25106;-68
2023/01/04 14:20:25;;;;;;;;;35.00;18.50;;;;;;;;114455;1209;24930;-66
2023/01/04 14:22:57;;;;;;;;;36.00;19.50;;;;;;;;114602;1200;24755;-63
2023/01/04 14:25:28;;;;;;;;;36.67;21.67;;;;;;;;114593;1203;25555;-68
2023/01/04 14:28:23;;;;;;;;;31.00;20.00;;;;;;;;114448;1211;25633;-67
2023/01/04 14:31:12;;;;;;;;;21.50;19.50;;;;;;;;114542;1206;25623;-64
2023/01/04 14:33:44;;;;;;;;;43.50;24.50;;;;;;;;114536;1207;25619;-68
2023/01/04 14:36:25;;;;;;;;;25.00;19.00;;;;;;;;114515;1210;24771;-68
2023/01/04 14:39:11;;;;;;;;;23.00;17.00;;;;;;;;114470;1209;25541;-66
2023/01/04 14:41:52;;;;;;;;;36.00;16.00;;;;;;;;114606;1200;24973;-64
2023/01/04 14:44:24;;;;;;;;;24.50;19.50;;;;;;;;114606;1205;25698;-65
2023/01/04 14:46:54;;;;;;;;;21.00;7.00;;;;;;;;114542;1203;26599;-65
2023/01/04 14:49:25;;;;;;;;;35.00;20.00;;;;;;;;114512;1203;24804;-65
2023/01/04 14:52:09;;;;;;;;;35.00;20.00;;;;;;;;114473;1208;25760;-66
2023/01/04 14:54:41;;;;;;;;;30.50;17.00;;;;;;;;114595;1209;25495;-66
2023/01/04 14:57:10;;;;;;;;;26.00;17.50;;;;;;;;114596;1205;24795;-65
2023/01/04 14:59:40;;;;;;;;;28.00;15.00;;;;;;;;114429;1207;25211;-65
2023/01/04 15:02:09;;;;;;;;;32.00;18.50;;;;;;;;114565;1208;25645;-67
2023/01/04 15:04:38;;;;;;;;;26.00;16.50;;;;;;;;114522;1199;24685;-65
2023/01/04 15:07:36;;;;;;;;;26.00;17.00;;;;;;;;114623;1203;24928;-69
2023/01/04 15:10:06;;;;;;;;;;;;;;;;;;114373;1200;24903;-66
2023/01/04 15:12:35;;;;;;;;;30.00;18.00;;;;;;;;114571;1207;24718;-67
2023/01/04 15:15:04;;;;;;;;;23.00;17.00;;;;;;;;114436;1202;24840;-66
2023/01/04 15:17:32;;;;;;;;;26.00;17.00;;;;;;;;114545;1203;24961;-67
2023/01/04 15:20:01;;;;;;;;;27.00;16.00;;;;;;;;114524;1208;26263;-62
2023/01/04 15:22:29;;;;;;;;;29.00;17.00;;;;;;;;114543;1209;25655;-65
2023/01/04 15:24:58;;;;;;;;;40.50;17.50;;;;;;;;114587;1209;25587;-63
2023/01/04 15:27:26;;;;;;;;;25.50;17.50;;;;;;;;114600;1203;24877;-66
2023/01/04 15:30:00;;;;;;;;;25.00;17.00;;;;;;;;114648;1206;25297;-66
2023/01/04 15:32:31;;;;;;;;;23.00;13.00;;;;;;;;114525;1208;25087;-66
2023/01/04 15:34:59;;;;;;;;;22.50;17.50;;;;;;;;114646;1209;25486;-67
2023/01/04 15:37:28;;;;;;;;;14.00;13.00;;;;;;;;114422;1207;25053;-66
2023/01/04 15:39:57;;;;;;;;;33.00;17.00;;;;;;;;114412;1205;24933;-67
2023/01/04 15:45:19;;;;;;;;;27.50;17.00;;;;;;;;114648;1211;24834;-67
2023/01/04 15:47:47;;;;;;;;;19.00;14.00;;;;;;;;114558;1203;25628;-66
2023/01/04 15:50:18;;;;;;;;;23.00;20.00;;;;;;;;114479;1199;25100;-67
2023/01/04 15:52:46;;;;;;;;;24.00;15.00;;;;;;;;114581;1203;25483;-67